createdAt,value
2023-02-28T00:01:15.472Z,2.55
2023-02-28T00:03:42.736Z,2.60
2023-02-28T00:06:11.068Z,2.63
2023-02-28T00:08:39.212Z,2.85
2023-02-28T00:11:08.497Z,2.65
2023-02-28T00:13:38.472Z,2.38
2023-02-28T00:16:14.391Z,2.83
2023-02-28T00:18:41.647Z,2.65
2023-02-28T00:21:08.731Z,2.55
2023-02-28T00:23:36.586Z,2.83
2023-02-28T00:26:03.770Z,2.67
2023-02-28T00:28:30.815Z,2.80
2023-02-28T00:30:58.580Z,2.42
2023-02-28T00:33:25.600Z,2.95
2023-02-28T00:35:52.417Z,2.78
2023-02-28T00:38:19.353Z,2.53
2023-02-28T00:40:46.296Z,2.15
2023-02-28T00:43:14.194Z,2.47
2023-02-28T00:45:41.401Z,3.10
2023-02-28T00:48:08.303Z,2.50
2023-02-28T00:50:35.180Z,2.53
2023-02-28T00:53:02.200Z,3.00
2023-02-28T00:55:29.029Z,2.50
2023-02-28T00:57:55.982Z,2.70
2023-02-28T01:00:22.958Z,2.83
2023-02-28T01:02:50.137Z,2.97
2023-02-28T01:05:17.245Z,3.30
2023-02-28T01:07:44.520Z,3.10
2023-02-28T01:10:12.017Z,2.92
2023-02-28T01:12:39.231Z,2.88
2023-02-28T01:15:06.816Z,2.75
2023-02-28T01:17:34.000Z,2.92
2023-02-28T01:20:00.847Z,2.72
2023-02-28T01:22:27.744Z,2.65
2023-02-28T01:24:54.998Z,2.92
2023-02-28T01:27:21.977Z,2.42
2023-02-28T01:29:49.000Z,2.78
2023-02-28T01:32:15.966Z,2.50
2023-02-28T01:34:42.990Z,2.75
2023-02-28T01:37:09.897Z,3.00
2023-02-28T01:39:36.925Z,2.65
2023-02-28T01:42:03.920Z,3.55
2023-02-28T01:45:02.036Z,2.10
2023-02-28T01:47:37.206Z,2.70
2023-02-28T01:50:08.515Z,3.03
2023-02-28T01:52:35.904Z,2.83
2023-02-28T02:03:11.217Z,2.65
2023-02-28T02:05:40.430Z,3.35
2023-02-28T02:08:17.897Z,2.67
2023-02-28T02:10:52.174Z,2.60
2023-02-28T02:13:37.301Z,2.92
2023-02-28T02:16:34.899Z,2.47
2023-02-28T02:19:36.782Z,2.60
2023-02-28T02:22:28.579Z,3.03
2023-02-28T02:25:23.782Z,3.05
2023-02-28T02:28:09.452Z,3.05
2023-02-28T02:31:00.289Z,3.55
2023-02-28T02:33:59.292Z,3.75
2023-02-28T02:37:08.845Z,3.70
2023-02-28T02:39:55.640Z,3.10
2023-02-28T02:42:41.693Z,3.13
2023-02-28T02:45:13.818Z,3.50
2023-02-28T02:47:41.865Z,3.20
2023-02-28T02:50:15.192Z,3.10
2023-02-28T02:52:49.301Z,3.08
2023-02-28T02:55:17.862Z,3.63
2023-02-28T02:57:48.418Z,2.92
2023-02-28T03:00:18.673Z,3.67
2023-02-28T03:02:46.817Z,2.92
2023-02-28T03:05:24.840Z,3.20
2023-02-28T03:07:51.799Z,3.45
2023-02-28T03:10:37.717Z,3.30
2023-02-28T03:13:10.551Z,3.22
2023-02-28T03:16:00.091Z,3.13
2023-02-28T03:19:00.552Z,2.80
2023-02-28T03:21:47.212Z,3.08
2023-02-28T03:24:20.365Z,2.88
2023-02-28T03:26:56.590Z,3.53
2023-02-28T03:29:39.918Z,3.45
2023-02-28T03:32:22.661Z,3.70
2023-02-28T03:35:00.054Z,3.47
2023-02-28T03:37:31.186Z,3.80
2023-02-28T03:40:04.906Z,2.83
2023-02-28T03:42:35.073Z,4.00
2023-02-28T03:45:32.341Z,3.45
2023-02-28T03:48:07.074Z,3.03
2023-02-28T03:50:40.573Z,3.72
2023-02-28T03:53:13.597Z,2.60
2023-02-28T03:55:46.165Z,4.18
2023-02-28T03:58:40.975Z,4.85
2023-02-28T04:01:27.018Z,3.85
2023-02-28T04:03:54.492Z,4.18
2023-02-28T04:06:22.881Z,3.92
2023-02-28T04:08:50.179Z,3.88
2023-02-28T04:11:42.334Z,3.70
2023-02-28T04:14:10.868Z,4.45
2023-02-28T04:16:40.941Z,3.50
2023-02-28T04:19:10.245Z,3.03
2023-02-28T04:21:45.468Z,3.78
2023-02-28T04:24:15.729Z,3.67
2023-02-28T04:26:45.169Z,3.65
2023-02-28T04:29:14.245Z,3.53
2023-02-28T04:31:41.688Z,3.92
2023-02-28T04:34:08.929Z,4.10
2023-02-28T04:36:36.075Z,4.50
2023-02-28T04:39:03.249Z,4.10
2023-02-28T04:41:32.506Z,4.18
2023-02-28T04:44:00.122Z,4.25
2023-02-28T04:46:26.968Z,2.78
2023-02-28T04:48:55.439Z,4.22
2023-02-28T04:51:22.323Z,4.43
2023-02-28T04:53:50.941Z,3.97
2023-02-28T04:56:19.043Z,4.10
2023-02-28T04:58:46.651Z,4.53
2023-02-28T05:01:28.831Z,3.28
2023-02-28T05:03:57.811Z,5.00
2023-02-28T05:06:26.808Z,4.55
2023-02-28T05:08:54.316Z,4.30
2023-02-28T05:11:35.819Z,4.38
2023-02-28T05:14:05.010Z,4.82
2023-02-28T05:16:32.523Z,4.45
2023-02-28T05:18:59.954Z,3.92
2023-02-28T05:21:28.876Z,4.60
2023-02-28T05:24:00.638Z,4.78
2023-02-28T05:26:28.603Z,4.85
2023-02-28T05:28:56.031Z,4.75
2023-02-28T05:31:24.069Z,4.68
2023-02-28T05:33:51.258Z,4.97
2023-02-28T05:36:18.380Z,5.13
2023-02-28T05:38:48.074Z,5.68
2023-02-28T05:41:15.815Z,5.40
2023-02-28T05:43:42.926Z,5.10
2023-02-28T05:46:12.840Z,4.35
2023-02-28T05:48:41.669Z,4.28
2023-02-28T05:51:09.355Z,6.63
2023-02-28T05:53:36.989Z,5.28
2023-02-28T05:56:04.536Z,5.93
2023-02-28T05:58:32.254Z,6.75
2023-02-28T06:01:00.107Z,5.10
2023-02-28T06:03:28.075Z,5.55
2023-02-28T06:05:55.366Z,6.03
2023-02-28T06:08:22.480Z,6.32
2023-02-28T06:10:49.488Z,6.25
2023-02-28T06:13:16.500Z,4.85
2023-02-28T06:15:43.413Z,5.07
2023-02-28T06:18:10.423Z,5.40
2023-02-28T06:20:37.437Z,5.07
2023-02-28T06:23:04.579Z,6.00
2023-02-28T06:25:31.886Z,5.82
2023-02-28T06:27:59.406Z,5.47
2023-02-28T06:30:27.969Z,5.95
2023-02-28T06:32:55.611Z,5.65
2023-02-28T06:35:23.407Z,6.35
2023-02-28T06:37:50.721Z,4.63
2023-02-28T06:40:18.256Z,5.97
2023-02-28T06:42:45.162Z,5.80
2023-02-28T06:45:13.420Z,6.13
2023-02-28T06:47:42.216Z,5.50
2023-02-28T06:50:12.070Z,6.82
2023-02-28T06:52:39.692Z,6.40
2023-02-28T06:55:08.317Z,5.97
2023-02-28T06:57:36.523Z,6.32
2023-02-28T07:00:08.843Z,6.85
2023-02-28T07:02:37.116Z,6.22
2023-02-28T07:05:05.805Z,6.50
2023-02-28T07:07:33.328Z,6.60
2023-02-28T07:10:00.497Z,6.50
2023-02-28T07:12:27.397Z,6.95
2023-02-28T07:14:55.427Z,6.80
2023-02-28T07:17:22.332Z,6.75
2023-02-28T07:19:49.092Z,7.50
2023-02-28T07:22:16.125Z,6.47
2023-02-28T07:24:42.981Z,6.75
2023-02-28T07:27:09.928Z,6.57
2023-02-28T07:29:37.191Z,7.28
2023-02-28T07:32:04.695Z,7.43
2023-02-28T07:34:31.565Z,6.68
2023-02-28T07:36:58.385Z,6.68
2023-02-28T07:39:25.327Z,7.53
2023-02-28T07:41:52.319Z,6.45
2023-02-28T07:44:19.500Z,6.75
2023-02-28T07:46:46.544Z,7.25
2023-02-28T07:49:13.537Z,6.68
2023-02-28T07:51:40.377Z,7.15
2023-02-28T07:54:07.236Z,7.35
2023-02-28T07:56:34.060Z,7.32
2023-02-28T07:59:02.567Z,6.65
2023-02-28T08:01:29.841Z,7.38
2023-02-28T08:03:58.021Z,6.88
2023-02-28T08:06:26.450Z,8.25
2023-02-28T08:08:54.548Z,9.15
2023-02-28T08:11:21.494Z,7.82
2023-02-28T08:13:48.418Z,7.60
2023-02-28T08:16:18.743Z,7.65
2023-02-28T08:18:46.390Z,8.77
2023-02-28T08:21:13.371Z,7.72
2023-02-28T08:23:40.573Z,8.27
2023-02-28T08:26:07.510Z,7.78
2023-02-28T08:28:34.791Z,7.90
2023-02-28T08:31:02.158Z,8.05
2023-02-28T08:33:29.510Z,8.00
2023-02-28T08:35:57.311Z,8.50
2023-02-28T08:38:24.743Z,9.20
2023-02-28T08:40:58.539Z,9.07
2023-02-28T08:43:26.169Z,8.35
2023-02-28T08:45:57.903Z,8.27
2023-02-28T08:48:29.554Z,8.23
2023-02-28T08:51:11.169Z,7.85
2023-02-28T08:53:40.253Z,7.78
2023-02-28T08:56:10.107Z,8.80
2023-02-28T08:58:37.581Z,7.70
2023-02-28T09:01:19.570Z,5.63
2023-02-28T09:03:48.574Z,9.50
2023-02-28T09:06:17.909Z,10.32
2023-02-28T09:08:44.944Z,7.15
2023-02-28T09:11:12.237Z,8.60
2023-02-28T09:13:40.156Z,7.80
2023-02-28T09:16:09.986Z,8.95
2023-02-28T09:18:40.563Z,10.23
2023-02-28T09:21:09.487Z,8.77
2023-02-28T09:23:39.159Z,8.95
2023-02-28T09:26:06.512Z,9.20
2023-02-28T09:28:33.634Z,7.45
2023-02-28T09:31:01.045Z,7.75
2023-02-28T09:33:28.033Z,10.60
2023-02-28T09:36:01.474Z,8.45
2023-02-28T09:38:29.067Z,8.87
2023-02-28T09:41:14.090Z,10.15
2023-02-28T09:43:46.523Z,6.80
2023-02-28T09:46:19.496Z,7.82
2023-02-28T09:48:49.274Z,9.23
2023-02-28T09:51:35.493Z,7.63
2023-02-28T09:54:02.795Z,7.70
2023-02-28T09:56:37.624Z,8.02
2023-02-28T09:59:13.474Z,8.02
2023-02-28T10:01:45.158Z,8.82
2023-02-28T10:04:12.421Z,8.80
2023-02-28T10:06:51.391Z,7.88
2023-02-28T10:09:32.161Z,8.48
2023-02-28T10:12:05.481Z,9.30
2023-02-28T10:14:35.225Z,9.02
2023-02-28T10:17:15.801Z,8.90
2023-02-28T10:19:54.478Z,9.35
2023-02-28T10:22:37.150Z,8.50
2023-02-28T10:25:19.040Z,8.15
2023-02-28T10:27:46.457Z,8.32
2023-02-28T10:30:14.901Z,9.45
2023-02-28T10:32:48.704Z,7.10
2023-02-28T10:35:26.240Z,8.80
2023-02-28T10:37:59.955Z,9.35
2023-02-28T10:40:36.775Z,8.03
2023-02-28T10:43:06.431Z,9.15
2023-02-28T10:45:36.666Z,8.68
2023-02-28T10:48:38.091Z,7.68
2023-02-28T10:51:08.246Z,8.18
2023-02-28T10:54:00.172Z,8.50
2023-02-28T10:56:27.972Z,9.35
2023-02-28T10:59:02.926Z,9.35
2023-02-28T11:01:41.970Z,8.02
2023-02-28T11:04:24.258Z,7.10
2023-02-28T11:07:02.349Z,8.18
2023-02-28T11:09:39.717Z,8.18
2023-02-28T11:12:09.991Z,8.57
2023-02-28T11:14:57.079Z,8.45
2023-02-28T11:17:29.857Z,8.02
2023-02-28T11:20:08.082Z,7.80
2023-02-28T11:22:40.028Z,8.23
2023-02-28T11:25:24.312Z,8.85
2023-02-28T11:27:53.543Z,9.27
2023-02-28T11:30:39.185Z,6.93
2023-02-28T11:33:42.773Z,8.80
2023-02-28T11:36:17.707Z,7.30
2023-02-28T11:38:45.962Z,6.25
2023-02-28T11:41:51.970Z,8.68
2023-02-28T11:44:41.964Z,7.72
2023-02-28T11:47:40.062Z,8.70
2023-02-28T11:50:44.838Z,8.60
2023-02-28T11:53:23.526Z,8.57
2023-02-28T11:56:15.476Z,8.15
2023-02-28T11:59:18.507Z,8.05
2023-02-28T12:02:22.437Z,6.28
2023-02-28T12:05:20.220Z,8.52
2023-02-28T12:08:08.788Z,8.55
2023-02-28T12:10:52.549Z,7.38
2023-02-28T12:13:29.108Z,8.57
2023-02-28T12:16:09.215Z,8.13
2023-02-28T12:19:06.704Z,7.88
2023-02-28T12:21:39.509Z,7.95
2023-02-28T12:24:18.249Z,8.35
2023-02-28T12:26:50.706Z,8.07
2023-02-28T12:29:31.527Z,7.43
2023-02-28T12:32:15.302Z,8.07
2023-02-28T12:35:07.411Z,9.20
2023-02-28T12:37:48.054Z,8.50
2023-02-28T12:40:21.747Z,8.27
2023-02-28T12:42:57.626Z,8.53
2023-02-28T12:45:29.458Z,8.77
2023-02-28T12:48:09.716Z,8.68
2023-02-28T12:50:37.135Z,8.65
2023-02-28T12:53:27.768Z,8.48
2023-02-28T12:56:23.713Z,8.07
2023-02-28T12:59:00.432Z,8.77
2023-02-28T13:02:04.937Z,8.88
2023-02-28T13:04:58.871Z,7.40
2023-02-28T13:07:45.132Z,8.88
2023-02-28T13:10:12.179Z,7.93
2023-02-28T13:12:52.900Z,8.75
2023-02-28T13:15:26.337Z,8.23
2023-02-28T13:17:55.651Z,8.15
2023-02-28T13:20:25.982Z,7.57
2023-02-28T13:22:55.497Z,8.40
2023-02-28T13:25:34.339Z,8.40
2023-02-28T13:28:05.135Z,9.60
2023-02-28T13:31:05.779Z,6.90
2023-02-28T13:33:39.903Z,9.25
2023-02-28T13:36:16.335Z,8.95
2023-02-28T13:38:50.376Z,8.02
2023-02-28T13:41:30.944Z,8.68
2023-02-28T13:44:30.363Z,8.73
2023-02-28T13:46:57.254Z,8.95
2023-02-28T13:49:24.408Z,9.48
2023-02-28T13:52:08.053Z,8.80
2023-02-28T13:55:00.035Z,8.10
2023-02-28T13:58:00.475Z,7.47
2023-02-28T14:00:39.502Z,8.45
2023-02-28T14:03:23.310Z,9.50
2023-02-28T14:06:29.751Z,9.90
2023-02-28T14:09:20.094Z,9.02
2023-02-28T14:11:48.030Z,9.13
2023-02-28T14:14:47.449Z,8.88
2023-02-28T14:17:18.118Z,9.02
2023-02-28T14:19:49.823Z,8.48
2023-02-28T14:22:52.040Z,8.52
2023-02-28T14:25:26.385Z,8.35
2023-02-28T14:28:18.679Z,8.45
2023-02-28T14:31:12.539Z,8.43
2023-02-28T14:34:06.779Z,9.93
2023-02-28T14:36:38.848Z,69.90
2023-02-28T14:39:17.837Z,20.67
2023-02-28T14:41:46.618Z,9.65
2023-02-28T14:44:19.705Z,8.68
2023-02-28T14:46:50.014Z,6.43
2023-02-28T14:49:31.280Z,7.53
2023-02-28T14:52:10.862Z,7.20
2023-02-28T14:54:39.493Z,6.22
2023-02-28T14:57:06.687Z,9.43
2023-02-28T14:59:37.357Z,7.72
2023-02-28T15:02:24.662Z,9.20
2023-02-28T15:05:00.278Z,7.55
2023-02-28T15:07:30.725Z,7.30
2023-02-28T15:10:13.037Z,7.72
2023-02-28T15:12:42.556Z,8.05
2023-02-28T15:15:16.982Z,7.93
2023-02-28T15:17:56.049Z,7.38
2023-02-28T15:20:24.335Z,7.07
2023-02-28T15:22:53.931Z,7.82
2023-02-28T15:25:23.394Z,7.55
2023-02-28T15:27:56.370Z,6.30
2023-02-28T15:30:31.731Z,6.75
2023-02-28T15:33:26.824Z,6.97
2023-02-28T15:36:08.083Z,7.28
2023-02-28T15:38:37.383Z,7.20
2023-02-28T15:41:09.028Z,7.65
2023-02-28T15:43:39.262Z,6.93
2023-02-28T15:46:11.815Z,7.32
2023-02-28T15:48:54.466Z,7.32
2023-02-28T15:51:26.059Z,7.38
2023-02-28T15:53:59.437Z,7.43
2023-02-28T15:56:32.235Z,7.25
2023-02-28T15:59:04.083Z,7.60
2023-02-28T16:01:38.888Z,8.05
2023-02-28T16:04:13.443Z,7.78
2023-02-28T16:06:45.728Z,8.23
2023-02-28T16:09:15.512Z,8.15
2023-02-28T16:11:46.785Z,8.07
2023-02-28T16:14:32.478Z,8.20
2023-02-28T16:17:20.521Z,8.68
2023-02-28T16:19:47.687Z,8.23
2023-02-28T16:22:14.883Z,8.70
2023-02-28T16:24:42.534Z,9.02
2023-02-28T16:27:19.611Z,8.85
2023-02-28T16:29:48.039Z,9.02
2023-02-28T16:32:16.919Z,8.00
2023-02-28T16:34:45.393Z,6.88
2023-02-28T16:37:18.971Z,8.48
2023-02-28T16:39:50.933Z,8.82
2023-02-28T16:42:29.429Z,7.95
2023-02-28T16:44:57.213Z,7.72
2023-02-28T16:47:24.595Z,8.60
2023-02-28T16:49:51.713Z,8.73
2023-02-28T16:52:18.808Z,8.50
2023-02-28T16:54:45.788Z,9.15
2023-02-28T16:57:24.610Z,9.00
2023-02-28T16:59:52.081Z,7.55
2023-02-28T17:02:20.572Z,8.65
2023-02-28T17:04:48.170Z,7.97
2023-02-28T17:07:17.603Z,9.00
2023-02-28T17:09:46.747Z,10.02
2023-02-28T17:12:14.064Z,9.10
2023-02-28T17:14:40.976Z,8.95
2023-02-28T17:17:08.863Z,9.00
2023-02-28T17:19:37.144Z,9.05
2023-02-28T17:22:04.418Z,9.48
2023-02-28T17:24:31.771Z,8.60
2023-02-28T17:26:59.142Z,8.55
2023-02-28T17:29:26.453Z,8.95
2023-02-28T17:31:53.493Z,9.25
2023-02-28T17:34:21.115Z,9.20
2023-02-28T17:36:49.483Z,9.50
2023-02-28T17:39:25.430Z,9.52
2023-02-28T17:41:57.059Z,9.43
2023-02-28T17:44:26.080Z,9.23
2023-02-28T17:46:55.129Z,9.07
2023-02-28T17:49:22.569Z,10.35
2023-02-28T17:51:50.173Z,10.35
2023-02-28T17:54:18.911Z,9.90
2023-02-28T17:56:46.300Z,9.73
2023-02-28T17:59:13.926Z,9.95
2023-02-28T18:01:41.115Z,10.15
2023-02-28T18:04:08.155Z,10.55
2023-02-28T18:06:47.396Z,10.10
2023-02-28T18:09:17.085Z,10.32
2023-02-28T18:11:49.004Z,10.20
2023-02-28T18:14:17.259Z,10.32
2023-02-28T18:16:45.200Z,9.50
2023-02-28T18:19:17.319Z,11.02
2023-02-28T18:21:46.348Z,10.82
2023-02-28T18:24:13.778Z,11.07
2023-02-28T18:26:41.326Z,11.45
2023-02-28T18:29:09.551Z,11.85
2023-02-28T18:31:36.523Z,10.75
2023-02-28T18:34:03.623Z,11.07
2023-02-28T18:36:30.870Z,11.60
2023-02-28T18:38:59.001Z,11.23
2023-02-28T18:41:26.307Z,11.40
2023-02-28T18:43:54.229Z,11.95
2023-02-28T18:46:21.819Z,12.50
2023-02-28T18:48:48.858Z,12.38
2023-02-28T18:51:21.958Z,11.80
2023-02-28T18:53:49.288Z,11.70
2023-02-28T18:56:19.205Z,12.07
2023-02-28T18:58:46.343Z,11.77
2023-02-28T19:01:22.787Z,11.85
2023-02-28T19:03:50.931Z,11.60
2023-02-28T19:06:19.027Z,11.30
2023-02-28T19:08:47.324Z,12.10
2023-02-28T19:11:17.000Z,11.05
2023-02-28T19:13:44.927Z,12.52
2023-02-28T19:16:13.579Z,11.63
2023-02-28T19:18:40.712Z,11.75
2023-02-28T19:21:10.150Z,11.32
2023-02-28T19:23:38.307Z,10.63
2023-02-28T19:26:16.074Z,11.80
2023-02-28T19:28:43.387Z,11.05
2023-02-28T19:31:16.712Z,12.02
2023-02-28T19:33:44.216Z,11.30
2023-02-28T19:36:12.539Z,11.98
2023-02-28T19:38:40.767Z,11.68
2023-02-28T19:41:11.132Z,11.32
2023-02-28T19:43:38.899Z,11.45
2023-02-28T19:46:06.682Z,11.70
2023-02-28T19:48:33.714Z,11.82
2023-02-28T19:51:06.291Z,12.32
2023-02-28T19:53:35.058Z,11.23
2023-02-28T19:56:04.223Z,11.00
2023-02-28T19:58:31.810Z,10.93
2023-02-28T20:01:01.354Z,11.52
2023-02-28T20:03:28.493Z,11.45
2023-02-28T20:06:03.552Z,10.25
2023-02-28T20:08:30.693Z,11.27
2023-02-28T20:11:03.627Z,12.23
2023-02-28T20:13:31.292Z,12.18
2023-02-28T20:16:03.006Z,10.95
2023-02-28T20:18:30.030Z,12.35
2023-02-28T20:20:57.504Z,11.30
2023-02-28T20:23:25.320Z,11.27
2023-02-28T20:25:52.453Z,12.82
2023-02-28T20:28:19.884Z,12.80
2023-02-28T20:30:50.425Z,13.50
2023-02-28T20:33:18.732Z,12.20
2023-02-28T20:35:45.878Z,11.80
2023-02-28T20:38:13.020Z,12.88
2023-02-28T20:40:40.023Z,13.02
2023-02-28T20:43:07.102Z,10.85
2023-02-28T20:45:35.803Z,13.38
2023-02-28T20:48:02.964Z,21.60
2023-02-28T20:50:31.675Z,22.15
2023-02-28T20:52:58.735Z,14.77
2023-02-28T20:55:25.935Z,14.52
2023-02-28T20:57:54.132Z,14.30
2023-02-28T21:00:22.677Z,13.90
2023-02-28T21:02:49.984Z,13.50
2023-02-28T21:05:17.881Z,12.63
2023-02-28T21:07:44.978Z,13.80
2023-02-28T21:10:12.420Z,14.25
2023-02-28T21:12:39.346Z,13.50
2023-02-28T21:15:07.002Z,13.45
2023-02-28T21:17:34.095Z,14.95
2023-02-28T21:20:01.101Z,13.52
2023-02-28T21:22:28.164Z,15.10
2023-02-28T21:24:55.152Z,14.98
2023-02-28T21:27:22.085Z,15.32
2023-02-28T21:29:49.329Z,14.90
2023-02-28T21:32:16.411Z,15.13
2023-02-28T21:34:43.569Z,14.38
2023-02-28T21:37:11.421Z,14.65
2023-02-28T21:39:38.537Z,14.48
2023-02-28T21:42:06.036Z,15.32
2023-02-28T21:44:34.495Z,14.30
2023-02-28T21:47:02.077Z,15.23
2023-02-28T21:49:29.599Z,14.38
2023-02-28T21:51:57.142Z,14.50
2023-02-28T21:54:25.068Z,14.02
2023-02-28T21:56:52.243Z,13.18
2023-02-28T21:59:20.280Z,14.55
2023-02-28T22:01:50.295Z,14.75
2023-02-28T22:04:21.924Z,15.00
2023-02-28T22:06:51.383Z,15.25
2023-02-28T22:09:19.126Z,18.13
2023-02-28T22:11:46.189Z,20.48
2023-02-28T22:14:13.746Z,20.23
2023-02-28T22:16:51.294Z,16.00
2023-02-28T22:19:19.995Z,16.23
2023-02-28T22:21:47.724Z,15.52
2023-02-28T22:24:17.544Z,15.38
2023-02-28T22:26:44.846Z,14.38
2023-02-28T22:29:11.988Z,15.35
2023-02-28T22:31:39.227Z,15.32
2023-02-28T22:34:08.904Z,14.48
2023-02-28T22:36:36.853Z,15.02
2023-02-28T22:39:05.024Z,15.20
2023-02-28T22:41:32.945Z,15.60
2023-02-28T22:44:02.857Z,14.60
2023-02-28T22:46:31.475Z,14.27
2023-02-28T22:49:04.169Z,16.15
2023-02-28T22:51:31.696Z,15.77
2023-02-28T22:53:58.939Z,14.65
2023-02-28T22:56:28.847Z,15.25
2023-02-28T22:58:58.499Z,14.55
2023-02-28T23:01:29.408Z,15.43
2023-02-28T23:03:57.421Z,15.15
2023-02-28T23:06:42.808Z,14.55
2023-02-28T23:09:21.663Z,14.82
2023-02-28T23:11:51.082Z,15.35
2023-02-28T23:14:19.982Z,15.75
2023-02-28T23:16:52.412Z,16.50
2023-02-28T23:19:21.216Z,14.43
2023-02-28T23:21:48.605Z,15.15
2023-02-28T23:24:17.828Z,15.27
2023-02-28T23:26:47.393Z,14.98
2023-02-28T23:29:16.442Z,15.73
2023-02-28T23:31:44.162Z,15.10
2023-02-28T23:34:12.100Z,14.70
2023-02-28T23:36:46.288Z,14.52
2023-02-28T23:39:16.288Z,14.80
2023-02-28T23:41:43.955Z,14.50
2023-02-28T23:44:16.988Z,15.43
2023-02-28T23:46:45.972Z,15.70
2023-02-28T23:49:13.355Z,14.07
2023-02-28T23:51:40.482Z,14.75
2023-02-28T23:54:08.022Z,14.45
2023-02-28T23:56:35.014Z,14.55
2023-02-28T23:59:02.171Z,14.63
